PUA1502 SUMU-SACO
Flight info
| Callsign | PUA1502 |
|---|---|
| Flight time | N/A |
| Altitude | 28000 |
| Route | NIMBO UL417 GUA UW2 ROS UW5 ASISA ASISA1U |
| Aircraft | A320/M-SDE3FGHIRWY/LB1 |
Departure
| Time | 2026-04-26 17:01 |
|---|---|
| Airport | Carrasco General Cesáreo L. Berisso International Airport (SUMU) |
Arrival
| Time | N/A |
|---|---|
| Airport | Ingeniero Aeronáutico Ambrosio L.V. Taravella International Airport (SACO) |
| Time | Latitude | Longitude | Altitude | Speed | Heading |
|---|---|---|---|---|---|
| 2026-04-26 15:47 | -34.83724 | -56.01971 | 88 ft | 0 kts | 143° |
| 2026-04-26 15:55 | -34.83724 | -56.01972 | 82 ft | 0 kts | 143° |
| 2026-04-26 16:05 | -34.83723 | -56.01972 | 82 ft | 0 kts | 143° |
| 2026-04-26 16:20 | -34.83723 | -56.01973 | 82 ft | 0 kts | 143° |
| 2026-04-26 16:31 | -34.83722 | -56.01973 | 82 ft | 0 kts | 143° |
| 2026-04-26 16:51 | -34.83721 | -56.01974 | 82 ft | 2 kts | 143° |
| 2026-04-26 16:52 | -34.83701 | -56.01993 | 86 ft | 4 kts | 139° |
| 2026-04-26 16:52 | -34.83694 | -56.02001 | 84 ft | 4 kts | 136° |
| 2026-04-26 16:52 | -34.83669 | -56.02043 | 87 ft | 4 kts | 85° |
| 2026-04-26 16:52 | -34.83671 | -56.02055 | 82 ft | 0 kts | 53° |
| 2026-04-26 16:53 | -34.83671 | -56.02056 | 82 ft | 0 kts | 53° |
| 2026-04-26 16:56 | -34.83658 | -56.02033 | 85 ft | 5 kts | 53° |
| 2026-04-26 16:57 | -34.83630 | -56.01989 | 83 ft | 9 kts | 53° |
| 2026-04-26 16:57 | -34.83587 | -56.01919 | 85 ft | 11 kts | 53° |
| 2026-04-26 16:57 | -34.83476 | -56.01765 | 85 ft | 14 kts | 17° |
| 2026-04-26 16:58 | -34.83384 | -56.01822 | 85 ft | 16 kts | 324° |
| 2026-04-26 16:58 | -34.83351 | -56.01848 | 84 ft | 17 kts | 331° |
| 2026-04-26 16:58 | -34.83124 | -56.01573 | 84 ft | 21 kts | 57° |
| 2026-04-26 16:59 | -34.83033 | -56.01411 | 86 ft | 25 kts | 55° |
| 2026-04-26 16:59 | -34.82841 | -56.01263 | 84 ft | 1 kts | 329° |
| 2026-04-26 17:00 | -34.82836 | -56.01435 | 85 ft | 35 kts | 234° |
| 2026-04-26 17:00 | -34.83616 | -56.02717 | 85 ft | 142 kts | 234° |
| 2026-04-26 17:00 | -34.84250 | -56.03758 | 362 ft | 157 kts | 235° |
| 2026-04-26 17:01 | -34.84896 | -56.04820 | 855 ft | 156 kts | 234° |
| 2026-04-26 17:01 | -34.85546 | -56.05887 | 1431 ft | 160 kts | 234° |
| 2026-04-26 17:01 | -34.86147 | -56.07065 | 1819 ft | 172 kts | 257° |
| 2026-04-26 17:01 | -34.86009 | -56.08430 | 2479 ft | 163 kts | 297° |
| 2026-04-26 17:02 | -34.85259 | -56.09544 | 2728 ft | 186 kts | 315° |
| 2026-04-26 17:02 | -34.84247 | -56.10722 | 2744 ft | 214 kts | 315° |
| 2026-04-26 17:02 | -34.83134 | -56.12007 | 2731 ft | 231 kts | 315° |
| 2026-04-26 17:02 | -34.82406 | -56.12848 | 2735 ft | 235 kts | 315° |
| 2026-04-26 17:03 | -34.81336 | -56.14078 | 2692 ft | 218 kts | 315° |
| 2026-04-26 17:03 | -34.80287 | -56.15282 | 2660 ft | 188 kts | 316° |
| 2026-04-26 17:03 | -34.79392 | -56.16269 | 2919 ft | 158 kts | 316° |
| 2026-04-26 17:03 | -34.78626 | -56.17153 | 2879 ft | 152 kts | 314° |
| 2026-04-26 17:04 | -34.77830 | -56.18044 | 2747 ft | 151 kts | 317° |
| 2026-04-26 17:04 | -34.76918 | -56.18944 | 1909 ft | 190 kts | 321° |
| 2026-04-26 17:04 | -34.75922 | -56.19862 | 1787 ft | 180 kts | 321° |